createdAt,value
2023-02-25T05:29:54.392Z,0.373
2023-02-25T05:40:17.061Z,0.747
2023-02-25T05:43:56.495Z,1.867
2023-02-25T05:46:34.867Z,3.361
2023-02-25T05:49:13.066Z,5.976
2023-02-25T05:51:46.210Z,9.711
2023-02-25T05:54:24.471Z,15.313
2023-02-25T05:56:57.607Z,35.109
2023-02-25T06:00:11.581Z,83.29
2023-02-25T06:03:51.093Z,109.809
2023-02-25T06:06:29.388Z,135.954
2023-02-25T06:09:02.398Z,144.918
2023-02-25T06:11:36.447Z,197.208
2023-02-25T06:14:24.921Z,258.462
2023-02-25T06:17:03.251Z,306.27
2023-02-25T06:19:36.180Z,351.09
2023-02-25T06:22:09.278Z,424.296
2023-02-25T06:24:42.368Z,516.924
2023-02-25T06:27:25.819Z,531.864
2023-02-25T06:30:04.067Z,490.032
2023-02-25T06:33:02.691Z,286.848
2023-02-25T06:35:38.602Z,336.15
2023-02-25T06:38:21.866Z,372.006
2023-02-25T06:41:00.181Z,457.164
2023-02-25T06:43:33.180Z,427.284
2023-02-25T06:46:06.401Z,264.438
2023-02-25T06:48:54.804Z,303.282
2023-02-25T06:51:38.087Z,454.176
2023-02-25T06:54:16.276Z,460.152
2023-02-25T06:56:54.491Z,487.044
2023-02-25T06:59:27.623Z,380.97
2023-02-25T07:02:00.788Z,439.236
2023-02-25T07:04:49.232Z,442.224
2023-02-25T07:07:37.587Z,427.284
2023-02-25T07:10:26.052Z,525.888
2023-02-25T07:13:09.329Z,561.744
2023-02-25T07:15:57.802Z,788.832
2023-02-25T07:18:30.862Z,926.28
2023-02-25T07:21:14.231Z,1081.656
2023-02-25T07:23:57.559Z,1272.888
2023-02-25T07:26:51.102Z,1171.296
2023-02-25T07:29:29.345Z,1237.032
2023-02-25T07:32:07.765Z,1231.056
2023-02-25T07:34:45.699Z,1380.456
2023-02-25T07:37:23.983Z,1231.056
2023-02-25T07:39:57.078Z,1482.048
2023-02-25T07:43:21.161Z,1888.416
2023-02-25T07:46:09.637Z,1087.632
2023-02-25T07:49:03.104Z,1332.648
2023-02-25T07:51:46.431Z,1260.936
2023-02-25T07:54:29.745Z,1697.184
2023-02-25T07:57:13.051Z,2569.68
2023-02-25T07:59:51.299Z,3023.856
2023-02-25T08:02:29.627Z,3203.136
2023-02-25T08:05:12.971Z,3729.024
2023-02-25T08:07:51.198Z,3944.16
2023-02-25T08:10:34.496Z,3561.696
2023-02-25T08:13:17.839Z,3489.984
2023-02-25T08:15:50.996Z,4231.008
2023-02-25T08:18:34.258Z,4111.488
2023-02-25T08:21:07.465Z,3991.968
2023-02-25T08:23:40.600Z,4732.992
2023-02-25T08:26:18.824Z,4302.72
2023-02-25T08:29:12.399Z,4972.032
2023-02-25T08:31:45.726Z,4732.992
2023-02-25T08:34:18.784Z,5928.192
2023-02-25T08:36:53.785Z,5904.288
2023-02-25T08:39:26.924Z,5450.112
2023-02-25T08:42:20.449Z,5211.072
2023-02-25T08:44:53.539Z,5904.288
2023-02-25T08:47:47.913Z,5760.864
2023-02-25T08:50:26.171Z,5760.864
2023-02-25T08:52:59.401Z,6597.504
2023-02-25T08:55:57.945Z,6693.12
2023-02-25T08:58:31.110Z,6693.12
2023-02-25T09:01:09.470Z,7458.048
2023-02-25T09:03:42.465Z,7697.088
2023-02-25T09:06:35.972Z,7936.128
2023-02-25T09:10:00.104Z,7410.24
2023-02-25T09:12:58.701Z,7314.624
2023-02-25T09:15:57.351Z,7458.048
2023-02-25T09:18:30.514Z,7075.584
2023-02-25T09:21:13.779Z,7983.936
2023-02-25T09:23:54.275Z,8079.552
2023-02-25T09:26:42.835Z,8796.672
2023-02-25T09:29:21.065Z,7410.24
2023-02-25T09:31:54.479Z,6932.16
2023-02-25T09:34:32.537Z,6645.312
2023-02-25T09:37:29.962Z,9513.792
2023-02-25T09:40:08.215Z,8796.672
2023-02-25T09:42:51.565Z,6215.04
2023-02-25T09:45:24.698Z,6454.08
2023-02-25T09:47:57.858Z,5641.344
2023-02-25T09:50:41.266Z,4852.512
2023-02-25T09:53:24.546Z,4159.296
2023-02-25T09:55:57.697Z,4661.28
2023-02-25T09:58:30.897Z,5641.344
2023-02-25T10:01:09.064Z,5402.304
2023-02-25T10:04:43.426Z,5282.784
2023-02-25T10:07:21.640Z,4972.032
2023-02-25T10:09:54.688Z,5211.072
2023-02-25T10:12:27.861Z,7075.584
2023-02-25T10:15:44.407Z,8892.288
2023-02-25T10:18:40.323Z,9131.328
2023-02-25T10:21:38.970Z,6549.696
2023-02-25T10:24:32.437Z,6693.12
2023-02-25T10:27:05.493Z,8892.288
2023-02-25T10:29:38.616Z,8987.904
2023-02-25T10:32:21.935Z,8318.592
2023-02-25T10:35:25.656Z,8509.824
2023-02-25T10:37:58.713Z,6884.352
2023-02-25T10:41:07.466Z,4948.128
2023-02-25T10:43:45.731Z,4732.992
2023-02-25T10:46:34.185Z,6167.232
2023-02-25T10:49:17.362Z,6884.352
2023-02-25T10:52:10.828Z,8557.632
2023-02-25T10:54:43.894Z,6406.272
2023-02-25T10:57:22.127Z,6693.12
2023-02-25T11:00:25.834Z,6932.16
2023-02-25T11:03:04.075Z,7410.24
2023-02-25T11:06:33.290Z,6262.848
2023-02-25T11:09:22.710Z,4613.472
2023-02-25T11:12:55.870Z,6932.16
2023-02-25T11:15:41.995Z,8270.784
2023-02-25T11:18:32.620Z,7792.704
2023-02-25T11:21:05.744Z,5784.768
2023-02-25T11:23:43.944Z,5784.768
2023-02-25T11:26:32.281Z,6884.352
2023-02-25T11:29:20.789Z,7075.584
2023-02-25T11:32:14.417Z,6740.928
2023-02-25T11:35:07.891Z,8079.552
2023-02-25T11:38:06.545Z,8940.096
2023-02-25T11:40:44.771Z,8270.784
2023-02-25T11:43:28.055Z,8796.672
2023-02-25T11:46:26.845Z,8987.904
2023-02-25T11:49:04.893Z,9131.328
2023-02-25T11:51:53.386Z,8940.096
2023-02-25T11:54:36.738Z,8557.632
2023-02-25T11:57:09.800Z,10039.68
2023-02-25T12:00:23.746Z,8892.288
2023-02-25T12:03:02.022Z,8892.288
2023-02-25T12:05:45.387Z,9226.944
2023-02-25T12:08:23.653Z,9083.52
2023-02-25T12:10:56.910Z,9752.832
2023-02-25T12:13:30.137Z,9083.52
2023-02-25T12:16:03.276Z,9991.872
2023-02-25T12:18:36.380Z,10183.104
2023-02-25T12:21:25.008Z,9609.408
2023-02-25T12:23:58.981Z,9370.368
2023-02-25T12:26:52.538Z,9944.064
2023-02-25T12:29:25.579Z,10900.224
2023-02-25T12:31:58.758Z,10900.224
2023-02-25T12:34:52.186Z,11187.072
2023-02-25T12:37:25.276Z,11808.576
2023-02-25T12:40:18.754Z,11139.264
2023-02-25T12:42:51.865Z,10948.032
2023-02-25T12:45:25.040Z,7888.32
2023-02-25T12:47:58.038Z,8366.4
2023-02-25T12:50:36.307Z,10804.608
2023-02-25T12:53:24.844Z,11808.576
2023-02-25T12:56:28.607Z,12334.464
2023-02-25T12:59:06.852Z,13290.624
2023-02-25T13:01:40.043Z,15776.64
2023-02-25T13:04:18.347Z,16445.952
2023-02-25T13:06:51.544Z,15872.256
2023-02-25T13:09:29.670Z,15681.024
2023-02-25T13:12:23.236Z,16350.336
2023-02-25T13:15:01.507Z,14916.096
2023-02-25T13:18:10.304Z,14246.784
2023-02-25T13:20:48.538Z,11952
2023-02-25T13:23:22.492Z,11856.384
2023-02-25T13:26:05.800Z,12430.08
2023-02-25T13:28:49.166Z,14246.784
2023-02-25T13:31:27.522Z,15585.408
2023-02-25T13:34:10.734Z,14724.864
2023-02-25T13:36:48.929Z,10039.68
2023-02-25T13:39:22.037Z,7266.816
2023-02-25T13:41:54.552Z,9991.872
2023-02-25T13:44:43.029Z,16063.488
2023-02-25T13:47:21.356Z,14151.168
2023-02-25T13:49:59.028Z,13290.624
2023-02-25T13:52:42.451Z,9561.6
2023-02-25T13:55:30.969Z,6119.424
2023-02-25T13:58:04.064Z,7314.624
2023-02-25T14:00:47.724Z,9609.408
2023-02-25T14:03:30.876Z,9705.024
2023-02-25T14:06:09.019Z,8270.784
2023-02-25T14:09:02.640Z,6501.888
2023-02-25T14:11:51.303Z,7123.392
2023-02-25T14:14:21.315Z,6023.808
2023-02-25T14:16:54.454Z,6406.272
2023-02-25T14:19:37.744Z,9705.024
2023-02-25T14:22:10.898Z,11952
2023-02-25T14:24:43.993Z,8079.552
2023-02-25T14:27:15.121Z,4517.856
2023-02-25T14:29:48.196Z,5497.92
2023-02-25T14:32:21.308Z,6645.312
2023-02-25T14:35:04.576Z,9800.64
2023-02-25T14:37:37.683Z,10613.376
2023-02-25T14:40:10.864Z,10517.76
2023-02-25T14:42:54.108Z,8987.904
2023-02-25T14:45:57.929Z,8031.744
2023-02-25T14:48:46.292Z,8031.744
2023-02-25T14:51:24.773Z,7075.584
2023-02-25T14:54:02.704Z,8653.248
2023-02-25T14:56:42.393Z,9800.64
2023-02-25T14:59:41.055Z,9800.64
2023-02-25T15:02:14.225Z,7075.584
2023-02-25T15:04:47.317Z,7840.512
2023-02-25T15:07:45.916Z,9896.256
2023-02-25T15:10:29.238Z,7649.28
2023-02-25T15:13:27.896Z,7171.2
2023-02-25T15:16:21.406Z,5641.344
2023-02-25T15:19:40.403Z,4852.512
2023-02-25T15:22:13.482Z,4374.432
2023-02-25T15:25:00.676Z,2151.36
2023-02-25T15:27:49.173Z,726.084
2023-02-25T15:30:32.469Z,1709.136
2023-02-25T15:33:15.828Z,2689.2
2023-02-25T15:36:04.218Z,2820.672
2023-02-25T15:38:52.565Z,2509.92
2023-02-25T15:42:01.341Z,2258.928
2023-02-25T15:44:34.506Z,2091.6
2023-02-25T15:48:03.730Z,2055.744
2023-02-25T15:50:57.325Z,2115.504
2023-02-25T15:53:45.678Z,2294.784
2023-02-25T15:56:34.022Z,2569.68
2023-02-25T15:59:46.889Z,3274.848
2023-02-25T16:02:30.406Z,2916.288
2023-02-25T16:05:03.408Z,2235.024
2023-02-25T16:07:36.532Z,1422.288
2023-02-25T16:10:19.824Z,1045.8
2023-02-25T16:13:18.389Z,872.496
2023-02-25T16:16:12.021Z,1105.56
2023-02-25T16:18:50.137Z,684.252
2023-02-25T16:21:23.609Z,466.128
2023-02-25T16:24:24.299Z,277.884
2023-02-25T16:26:57.467Z,157.617
2023-02-25T16:29:40.820Z,125.496
2023-02-25T16:32:13.975Z,250.992
2023-02-25T16:36:18.835Z,216.63
2023-02-25T16:39:07.167Z,170.316
2023-02-25T16:41:55.580Z,135.954
2023-02-25T16:44:33.677Z,98.604
2023-02-25T16:47:11.900Z,68.724
2023-02-25T16:49:44.974Z,51.543
2023-02-25T16:52:28.199Z,40.338
2023-02-25T16:55:06.363Z,23.904
2023-02-25T16:58:35.567Z,14.193
2023-02-25T17:02:45.462Z,5.229
2023-02-25T17:06:04.373Z,3.361
2023-02-25T17:09:17.717Z,2.241
2023-02-25T17:14:39.623Z,0.747
2023-02-25T17:44:07.677Z,0
2023-02-25T17:51:46.855Z,0
2023-02-25T18:23:09.741Z,0.373
2023-02-25T18:25:58.204Z,0
2023-02-25T18:34:38.675Z,0.373
2023-02-25T18:44:01.430Z,0
